createdAt,value
2023-05-07T00:00:37.715Z,17.93
2023-05-07T00:03:05.528Z,17.97
2023-05-07T00:05:33.100Z,17.69
2023-05-07T00:08:00.480Z,18.12
2023-05-07T00:10:28.324Z,18.27
2023-05-07T00:12:55.724Z,18.40
2023-05-07T00:15:23.083Z,17.97
2023-05-07T00:17:51.071Z,17.98
2023-05-07T00:20:18.493Z,17.79
2023-05-07T00:22:46.152Z,17.47
2023-05-07T00:25:13.769Z,18.00
2023-05-07T00:27:41.181Z,18.22
2023-05-07T00:30:09.431Z,18.52
2023-05-07T00:32:37.831Z,18.37
2023-05-07T00:35:06.078Z,17.75
2023-05-07T00:37:33.435Z,17.92
2023-05-07T00:40:01.038Z,17.90
2023-05-07T00:42:28.847Z,17.60
2023-05-07T00:44:56.218Z,18.12
2023-05-07T00:47:23.956Z,18.19
2023-05-07T00:49:51.391Z,17.52
2023-05-07T00:52:18.948Z,17.64
2023-05-07T00:54:46.689Z,17.34
2023-05-07T00:57:14.059Z,17.76
2023-05-07T00:59:41.829Z,17.89
2023-05-07T01:02:09.502Z,17.52
2023-05-07T01:04:37.678Z,17.35
2023-05-07T01:07:06.164Z,17.13
2023-05-07T01:09:36.204Z,17.12
2023-05-07T01:12:03.956Z,17.34
2023-05-07T01:14:32.029Z,17.30
2023-05-07T01:16:59.798Z,17.49
2023-05-07T01:19:28.155Z,17.68
2023-05-07T01:21:55.534Z,17.73
2023-05-07T01:24:24.542Z,17.83
2023-05-07T01:26:51.939Z,17.89
2023-05-07T01:29:19.603Z,17.79
2023-05-07T01:31:47.816Z,17.64
2023-05-07T01:34:15.307Z,18.02
2023-05-07T01:36:42.681Z,17.44
2023-05-07T01:39:10.391Z,17.49
2023-05-07T01:41:37.744Z,17.31
2023-05-07T01:44:05.783Z,17.35
2023-05-07T01:46:33.688Z,17.00
2023-05-07T01:49:01.089Z,17.49
2023-05-07T01:51:28.603Z,17.29
2023-05-07T01:53:56.641Z,17.13
2023-05-07T01:56:24.815Z,17.27
2023-05-07T01:58:52.766Z,17.00
2023-05-07T02:01:20.710Z,16.97
2023-05-07T02:03:49.034Z,16.83
2023-05-07T02:06:17.381Z,16.92
2023-05-07T02:08:44.752Z,17.23
2023-05-07T02:11:12.615Z,16.97
2023-05-07T02:13:40.017Z,16.81
2023-05-07T02:16:07.710Z,17.00
2023-05-07T02:18:36.744Z,17.11
2023-05-07T02:21:04.347Z,17.28
2023-05-07T02:23:31.796Z,16.94
2023-05-07T02:25:59.705Z,16.98
2023-05-07T02:28:27.071Z,17.00
2023-05-07T02:30:54.759Z,16.71
2023-05-07T02:33:22.564Z,16.29
2023-05-07T02:35:49.940Z,16.64
2023-05-07T02:38:17.306Z,16.95
2023-05-07T02:40:45.058Z,16.34
2023-05-07T02:43:12.448Z,16.94
2023-05-07T02:45:41.006Z,16.85
2023-05-07T02:48:09.010Z,16.61
2023-05-07T02:50:36.422Z,16.35
2023-05-07T02:53:04.580Z,16.51
2023-05-07T02:55:32.388Z,16.70
2023-05-07T02:58:00.083Z,17.07
2023-05-07T03:00:27.752Z,16.68
2023-05-07T03:02:57.045Z,16.38
2023-05-07T03:05:24.569Z,16.16
2023-05-07T03:07:51.928Z,16.54
2023-05-07T03:10:19.730Z,16.62
2023-05-07T03:12:47.189Z,16.56
2023-05-07T03:15:15.529Z,16.86
2023-05-07T03:17:43.200Z,16.56
2023-05-07T03:20:12.061Z,17.07
2023-05-07T03:22:40.510Z,16.32
2023-05-07T03:25:08.660Z,16.46
2023-05-07T03:27:36.045Z,16.68
2023-05-07T03:30:05.078Z,16.73
2023-05-07T03:32:32.766Z,16.79
2023-05-07T03:35:00.262Z,16.52
2023-05-07T03:37:27.861Z,16.23
2023-05-07T03:39:55.487Z,16.54
2023-05-07T03:42:22.950Z,16.77
2023-05-07T03:44:50.870Z,16.91
2023-05-07T03:47:18.878Z,16.51
2023-05-07T03:49:46.415Z,16.56
2023-05-07T03:52:14.061Z,16.79
2023-05-07T03:54:41.750Z,16.88
2023-05-07T03:57:09.373Z,16.74
2023-05-07T03:59:37.613Z,16.91
2023-05-07T04:02:05.804Z,16.78
2023-05-07T04:04:34.309Z,17.13
2023-05-07T04:07:01.906Z,17.13
2023-05-07T04:09:29.838Z,17.27
2023-05-07T04:11:58.004Z,17.30
2023-05-07T04:14:25.415Z,17.00
2023-05-07T04:16:53.325Z,17.01
2023-05-07T04:19:21.050Z,17.26
2023-05-07T04:21:50.250Z,17.34
2023-05-07T04:24:17.791Z,17.42
2023-05-07T04:26:46.495Z,17.82
2023-05-07T04:29:14.072Z,17.92
2023-05-07T04:31:45.167Z,17.75
2023-05-07T04:34:13.245Z,17.75
2023-05-07T04:36:41.456Z,18.00
2023-05-07T04:39:11.565Z,18.02
2023-05-07T04:41:39.927Z,18.58
2023-05-07T04:44:07.558Z,19.31
2023-05-07T04:46:35.884Z,19.60
2023-05-07T04:49:04.305Z,19.79
2023-05-07T04:51:33.713Z,20.37
2023-05-07T04:54:01.177Z,20.46
2023-05-07T04:56:30.890Z,20.94
2023-05-07T04:58:58.580Z,21.05
2023-05-07T05:01:26.259Z,20.96
2023-05-07T05:03:54.070Z,21.16
2023-05-07T05:06:21.567Z,20.90
2023-05-07T05:08:49.070Z,20.83
2023-05-07T05:11:16.840Z,20.89
2023-05-07T05:13:44.215Z,21.04
2023-05-07T05:16:11.871Z,21.37
2023-05-07T05:18:39.890Z,21.87
2023-05-07T05:21:09.102Z,21.75
2023-05-07T05:23:36.599Z,22.20
2023-05-07T05:26:04.692Z,22.84
2023-05-07T05:28:32.479Z,22.80
2023-05-07T05:30:59.888Z,23.47
2023-05-07T05:33:28.169Z,24.15
2023-05-07T05:35:58.957Z,24.90
2023-05-07T05:38:26.860Z,25.53
2023-05-07T05:40:56.676Z,26.03
2023-05-07T05:43:24.546Z,27.66
2023-05-07T05:45:52.051Z,28.94
2023-05-07T05:48:19.938Z,30.00
2023-05-07T05:50:47.899Z,30.90
2023-05-07T05:53:15.467Z,30.28
2023-05-07T05:55:43.452Z,30.18
2023-05-07T05:58:11.232Z,30.15
2023-05-07T06:00:39.113Z,30.59
2023-05-07T06:03:07.009Z,30.84
2023-05-07T06:05:35.231Z,29.99
2023-05-07T06:08:02.785Z,30.41
2023-05-07T06:10:31.610Z,30.84
2023-05-07T06:12:59.138Z,31.65
2023-05-07T06:15:26.911Z,32.21
2023-05-07T06:17:57.038Z,32.37
2023-05-07T06:20:24.733Z,31.98
2023-05-07T06:22:52.105Z,32.80
2023-05-07T06:25:19.957Z,32.59
2023-05-07T06:27:47.318Z,33.51
2023-05-07T06:30:14.826Z,33.36
2023-05-07T06:32:42.546Z,32.39
2023-05-07T06:35:10.217Z,31.48
2023-05-07T06:37:39.408Z,31.13
2023-05-07T06:40:08.437Z,29.74
2023-05-07T06:42:38.958Z,29.12
2023-05-07T06:45:15.614Z,29.03
2023-05-07T06:47:43.009Z,28.45
2023-05-07T06:50:11.165Z,27.66
2023-05-07T06:52:39.046Z,27.91
2023-05-07T06:55:07.300Z,27.68
2023-05-07T06:57:34.898Z,28.09
2023-05-07T07:00:02.282Z,27.56
2023-05-07T07:02:30.476Z,27.28
2023-05-07T07:04:58.219Z,26.77
2023-05-07T07:07:25.686Z,26.56
2023-05-07T07:09:53.099Z,26.33
2023-05-07T07:12:20.774Z,26.01
2023-05-07T07:14:48.456Z,25.82
2023-05-07T07:17:16.219Z,25.87
2023-05-07T07:19:43.898Z,25.98
2023-05-07T07:22:12.186Z,25.95
2023-05-07T07:24:39.678Z,25.93
2023-05-07T07:27:07.866Z,25.70
2023-05-07T07:29:35.422Z,25.41
2023-05-07T07:32:03.148Z,25.60
2023-05-07T07:34:31.204Z,25.51
2023-05-07T07:36:58.792Z,25.68
2023-05-07T07:39:26.285Z,25.06
2023-05-07T07:41:54.866Z,25.13
2023-05-07T07:44:22.288Z,22.57
2023-05-07T07:46:50.710Z,23.41
2023-05-07T07:49:18.426Z,23.95
2023-05-07T07:51:45.894Z,23.31
2023-05-07T07:54:13.478Z,23.79
2023-05-07T07:56:41.571Z,23.62
2023-05-07T07:59:09.662Z,23.53
2023-05-07T08:01:38.983Z,23.12
2023-05-07T08:04:07.476Z,23.16
2023-05-07T08:06:35.629Z,22.73
2023-05-07T08:09:03.567Z,21.90
2023-05-07T08:11:31.555Z,22.40
2023-05-07T08:13:59.286Z,22.43
2023-05-07T08:16:26.689Z,22.26
2023-05-07T08:18:54.458Z,22.71
2023-05-07T08:21:21.795Z,22.77
2023-05-07T08:23:49.191Z,22.98
2023-05-07T08:26:16.796Z,22.42
2023-05-07T08:28:44.510Z,22.88
2023-05-07T08:31:11.942Z,22.81
2023-05-07T08:33:39.880Z,22.76
2023-05-07T08:36:07.322Z,22.74
2023-05-07T08:38:35.187Z,22.56
2023-05-07T08:41:02.829Z,22.22
2023-05-07T08:43:30.411Z,22.11
2023-05-07T08:45:57.900Z,22.73
2023-05-07T08:48:26.614Z,23.01
2023-05-07T08:50:54.708Z,22.54
2023-05-07T08:53:22.707Z,22.92
2023-05-07T08:55:50.733Z,22.51
2023-05-07T08:58:18.187Z,23.78
2023-05-07T09:00:45.717Z,24.11
2023-05-07T09:03:13.754Z,24.03
2023-05-07T09:05:41.957Z,24.95
2023-05-07T09:08:09.497Z,26.38
2023-05-07T09:10:37.507Z,25.80
2023-05-07T09:13:05.278Z,26.98
2023-05-07T09:15:33.208Z,27.84
2023-05-07T09:18:02.456Z,27.19
2023-05-07T09:20:33.294Z,26.93
2023-05-07T09:23:01.168Z,26.65
2023-05-07T09:25:30.273Z,26.58
2023-05-07T09:27:58.423Z,28.64
2023-05-07T09:30:30.739Z,28.96
2023-05-07T09:33:00.216Z,29.41
2023-05-07T09:35:28.352Z,28.78
2023-05-07T09:37:56.694Z,28.90
2023-05-07T09:40:25.377Z,28.59
2023-05-07T09:42:53.728Z,28.34
2023-05-07T09:45:30.484Z,28.46
2023-05-07T09:47:59.302Z,27.21
2023-05-07T09:50:33.689Z,25.81
2023-05-07T09:53:01.695Z,25.89
2023-05-07T09:55:29.179Z,25.73
2023-05-07T09:57:56.820Z,25.61
2023-05-07T10:00:25.364Z,25.83
2023-05-07T10:02:58.367Z,25.30
2023-05-07T10:05:26.715Z,24.63
2023-05-07T10:07:54.656Z,24.55
2023-05-07T10:10:22.506Z,23.26
2023-05-07T10:12:50.831Z,23.41
2023-05-07T10:15:18.598Z,22.49
2023-05-07T10:17:47.011Z,22.90
2023-05-07T10:20:14.798Z,23.16
2023-05-07T10:22:44.238Z,23.55
2023-05-07T10:25:31.397Z,23.30
2023-05-07T10:28:02.267Z,22.83
2023-05-07T10:30:58.035Z,23.14
2023-05-07T10:33:28.087Z,22.95
2023-05-07T10:36:00.415Z,23.28
2023-05-07T10:38:28.381Z,23.34
2023-05-07T10:40:56.037Z,22.70
2023-05-07T10:43:23.555Z,22.91
2023-05-07T10:46:10.819Z,22.73
2023-05-07T10:49:12.816Z,23.13
2023-05-07T10:51:41.264Z,23.78
2023-05-07T10:54:12.258Z,24.55
2023-05-07T10:56:46.919Z,24.64
2023-05-07T10:59:31.740Z,24.22
2023-05-07T11:02:05.008Z,24.02
2023-05-07T11:04:35.998Z,24.55
2023-05-07T11:07:09.777Z,24.43
2023-05-07T11:09:53.264Z,24.34
2023-05-07T11:12:36.717Z,24.30
2023-05-07T11:15:08.605Z,24.39
2023-05-07T11:17:52.849Z,24.63
2023-05-07T11:20:21.317Z,24.32
2023-05-07T11:22:49.116Z,25.59
2023-05-07T11:25:22.542Z,25.41
2023-05-07T11:27:50.853Z,25.41
2023-05-07T11:30:19.581Z,24.75
2023-05-07T11:32:48.700Z,25.32
2023-05-07T11:35:17.119Z,25.65
2023-05-07T11:37:44.717Z,26.27
2023-05-07T11:40:14.837Z,24.32
2023-05-07T11:42:45.759Z,25.22
2023-05-07T11:45:13.451Z,25.07
2023-05-07T11:47:42.517Z,24.77
2023-05-07T11:50:12.040Z,24.51
2023-05-07T11:52:40.308Z,24.51
2023-05-07T11:55:08.059Z,25.49
2023-05-07T11:57:36.267Z,24.51
2023-05-07T12:00:05.633Z,24.37
2023-05-07T12:02:40.116Z,23.82
2023-05-07T12:05:08.055Z,24.17
2023-05-07T12:07:35.578Z,24.35
2023-05-07T12:10:07.368Z,24.72
2023-05-07T12:12:43.140Z,24.49
2023-05-07T12:15:11.331Z,24.39
2023-05-07T12:17:39.384Z,24.31
2023-05-07T12:20:08.207Z,23.84
2023-05-07T12:22:35.736Z,23.96
2023-05-07T12:25:03.958Z,24.22
2023-05-07T12:27:32.092Z,24.11
2023-05-07T12:30:00.348Z,23.95
2023-05-07T12:32:28.199Z,24.52
2023-05-07T12:34:55.593Z,23.53
2023-05-07T12:37:27.560Z,23.95
2023-05-07T12:40:07.465Z,23.89
2023-05-07T12:42:36.844Z,23.01
2023-05-07T12:45:12.096Z,23.08
2023-05-07T12:47:39.946Z,23.04
2023-05-07T12:50:08.017Z,23.61
2023-05-07T12:52:35.601Z,23.59
2023-05-07T12:55:07.688Z,24.12
2023-05-07T12:57:42.838Z,23.97
2023-05-07T13:00:10.810Z,24.36
2023-05-07T13:02:39.465Z,24.18
2023-05-07T13:05:07.146Z,24.11
2023-05-07T13:07:34.504Z,24.05
2023-05-07T13:10:02.379Z,23.66
2023-05-07T13:12:29.754Z,23.44
2023-05-07T13:14:57.116Z,23.33
2023-05-07T13:17:24.829Z,23.81
2023-05-07T13:19:52.254Z,24.06
2023-05-07T13:22:19.621Z,23.57
2023-05-07T13:24:47.250Z,24.42
2023-05-07T13:27:14.579Z,24.33
2023-05-07T13:29:41.955Z,24.10
2023-05-07T13:32:09.638Z,24.61
2023-05-07T13:34:37.945Z,24.64
2023-05-07T13:37:05.434Z,23.83
2023-05-07T13:39:33.029Z,24.02
2023-05-07T13:42:00.625Z,23.66
2023-05-07T13:44:28.152Z,24.03
2023-05-07T13:46:55.778Z,24.13
2023-05-07T13:49:23.111Z,23.90
2023-05-07T13:51:50.583Z,23.39
2023-05-07T13:54:18.321Z,23.71
2023-05-07T13:56:45.665Z,23.56
2023-05-07T13:59:15.276Z,23.55
2023-05-07T14:01:43.026Z,23.80
2023-05-07T14:04:10.859Z,23.41
2023-05-07T14:06:38.430Z,23.97
2023-05-07T14:09:05.789Z,23.72
2023-05-07T14:11:34.203Z,23.87
2023-05-07T14:14:03.384Z,23.63
2023-05-07T14:16:30.858Z,23.78
2023-05-07T14:18:58.930Z,23.85
2023-05-07T14:21:26.409Z,24.08
2023-05-07T14:23:53.750Z,23.70
2023-05-07T14:26:21.830Z,23.53
2023-05-07T14:28:49.199Z,23.43
2023-05-07T14:31:16.667Z,23.90
2023-05-07T14:33:44.344Z,23.17
2023-05-07T14:36:11.697Z,23.72
2023-05-07T14:38:39.194Z,23.63
2023-05-07T14:41:06.810Z,23.32
2023-05-07T14:43:34.363Z,23.44
2023-05-07T14:46:01.756Z,23.69
2023-05-07T14:48:29.474Z,23.35
2023-05-07T14:50:57.409Z,22.57
2023-05-07T14:53:24.733Z,23.03
2023-05-07T14:55:52.353Z,22.88
2023-05-07T14:58:19.720Z,22.61
2023-05-07T15:00:47.086Z,23.08
2023-05-07T15:03:14.789Z,22.44
2023-05-07T15:05:42.773Z,22.71
2023-05-07T15:08:10.340Z,23.35
2023-05-07T15:10:41.961Z,22.95
2023-05-07T15:13:11.887Z,22.79
2023-05-07T15:15:42.627Z,23.14
2023-05-07T15:18:09.982Z,22.48
2023-05-07T15:20:37.625Z,22.50
2023-05-07T15:23:06.773Z,23.09
2023-05-07T15:25:34.936Z,23.08
2023-05-07T15:28:02.422Z,22.96
2023-05-07T15:30:30.117Z,23.45
2023-05-07T15:32:57.590Z,23.44
2023-05-07T15:35:26.569Z,22.79
2023-05-07T15:37:54.716Z,23.23
2023-05-07T15:40:22.072Z,22.68
2023-05-07T15:42:49.525Z,23.26
2023-05-07T15:45:17.134Z,22.99
2023-05-07T15:47:44.570Z,22.74
2023-05-07T15:50:12.478Z,22.36
2023-05-07T15:52:40.781Z,21.96
2023-05-07T15:55:09.824Z,22.47
2023-05-07T15:57:37.237Z,22.41
2023-05-07T16:00:06.079Z,22.15
2023-05-07T16:02:40.373Z,22.11
2023-05-07T16:05:12.718Z,22.64
2023-05-07T16:07:40.998Z,22.36
2023-05-07T16:10:09.578Z,22.27
2023-05-07T16:12:37.166Z,22.11
2023-05-07T16:15:05.000Z,21.88
2023-05-07T16:17:33.631Z,21.99
2023-05-07T16:20:02.058Z,22.13
2023-05-07T16:22:31.554Z,21.63
2023-05-07T16:24:59.173Z,21.71
2023-05-07T16:27:26.513Z,21.78
2023-05-07T16:29:53.847Z,22.09
2023-05-07T16:32:21.452Z,21.96
2023-05-07T16:34:48.817Z,21.66
2023-05-07T16:37:16.158Z,21.89
2023-05-07T16:39:43.761Z,21.25
2023-05-07T16:42:11.201Z,21.44
2023-05-07T16:44:39.013Z,21.35
2023-05-07T16:47:06.695Z,21.18
2023-05-07T16:49:34.131Z,21.58
2023-05-07T16:52:01.453Z,21.56
2023-05-07T16:54:29.093Z,21.46
2023-05-07T16:56:57.055Z,21.54
2023-05-07T16:59:24.453Z,21.86
2023-05-07T17:01:52.526Z,21.22
2023-05-07T17:04:20.005Z,21.09
2023-05-07T17:06:47.388Z,20.67
2023-05-07T17:09:15.004Z,21.20
2023-05-07T17:11:42.402Z,20.80
2023-05-07T17:14:09.819Z,21.12
2023-05-07T17:16:37.514Z,20.94
2023-05-07T17:19:04.940Z,21.42
2023-05-07T17:21:32.381Z,20.60
2023-05-07T17:23:59.978Z,20.83
2023-05-07T17:26:27.937Z,20.26
2023-05-07T17:28:55.395Z,20.20
2023-05-07T17:31:23.087Z,20.41
2023-05-07T17:33:50.503Z,19.68
2023-05-07T17:36:17.860Z,19.98
2023-05-07T17:38:45.684Z,20.26
2023-05-07T17:41:13.057Z,20.23
2023-05-07T17:43:40.391Z,20.41
2023-05-07T17:46:09.043Z,19.98
2023-05-07T17:48:36.428Z,19.84
2023-05-07T17:51:04.083Z,19.64
2023-05-07T17:53:32.162Z,19.36
2023-05-07T17:55:59.515Z,19.17
2023-05-07T17:58:27.254Z,19.39
2023-05-07T18:00:55.500Z,19.16
2023-05-07T18:03:24.926Z,18.59
2023-05-07T18:05:52.315Z,18.64
2023-05-07T18:08:19.633Z,18.56
2023-05-07T18:10:47.337Z,18.75
2023-05-07T18:13:14.738Z,18.42
2023-05-07T18:15:42.295Z,18.20
2023-05-07T18:18:10.012Z,18.47
2023-05-07T18:20:37.450Z,17.95
2023-05-07T18:23:04.857Z,18.00
2023-05-07T18:25:32.818Z,18.41
2023-05-07T18:28:00.186Z,18.23
2023-05-07T18:30:27.585Z,18.45
2023-05-07T18:32:55.230Z,17.90
2023-05-07T18:35:22.776Z,18.10
2023-05-07T18:37:50.148Z,18.63
2023-05-07T18:40:17.854Z,18.24
2023-05-07T18:42:45.210Z,17.88
2023-05-07T18:45:12.668Z,18.40
2023-05-07T18:47:40.284Z,18.11
2023-05-07T18:50:08.354Z,18.41
2023-05-07T18:52:35.995Z,17.50
2023-05-07T18:55:04.051Z,18.23
2023-05-07T18:57:31.419Z,18.41
2023-05-07T18:59:58.801Z,18.16
2023-05-07T19:02:26.457Z,17.81
2023-05-07T19:04:53.854Z,17.61
2023-05-07T19:07:21.263Z,18.04
2023-05-07T19:10:03.625Z,18.29
2023-05-07T19:12:32.603Z,18.09
2023-05-07T19:15:00.241Z,17.44
2023-05-07T19:17:27.681Z,17.64
2023-05-07T19:19:55.051Z,18.07
2023-05-07T19:22:22.717Z,18.06
2023-05-07T19:24:50.097Z,18.01
2023-05-07T19:27:17.432Z,18.06
2023-05-07T19:29:45.043Z,18.03
2023-05-07T19:32:12.372Z,17.45
2023-05-07T19:34:39.733Z,17.33
2023-05-07T19:37:07.356Z,17.45
2023-05-07T19:39:34.680Z,17.81
2023-05-07T19:42:02.081Z,18.12
2023-05-07T19:44:29.721Z,18.16
2023-05-07T19:46:59.047Z,18.52
2023-05-07T19:49:26.364Z,18.68
2023-05-07T19:51:54.261Z,18.60
2023-05-07T19:54:22.619Z,18.35
2023-05-07T19:56:49.996Z,18.11
2023-05-07T19:59:17.652Z,18.52
2023-05-07T20:01:45.055Z,18.16
2023-05-07T20:04:12.699Z,18.38
2023-05-07T20:06:40.074Z,18.02
2023-05-07T20:09:11.598Z,18.47
2023-05-07T20:11:39.871Z,18.61
2023-05-07T20:14:07.423Z,18.57
2023-05-07T20:16:34.892Z,18.25
2023-05-07T20:19:02.685Z,18.29
2023-05-07T20:21:30.061Z,17.64
2023-05-07T20:23:58.122Z,16.90
2023-05-07T20:26:26.798Z,17.38
2023-05-07T20:28:54.157Z,17.81
2023-05-07T20:31:21.598Z,18.14
2023-05-07T20:33:49.304Z,16.85
2023-05-07T20:36:16.748Z,16.37
2023-05-07T20:38:44.293Z,16.91
2023-05-07T20:41:12.634Z,17.03
2023-05-07T20:43:39.977Z,16.43
2023-05-07T20:46:07.798Z,16.89
2023-05-07T20:48:35.625Z,17.09
2023-05-07T20:51:03.126Z,17.09
2023-05-07T20:53:31.435Z,17.58
2023-05-07T20:55:59.374Z,17.49
2023-05-07T20:58:28.278Z,16.94
2023-05-07T21:00:56.033Z,17.41
2023-05-07T21:03:23.699Z,17.15
2023-05-07T21:05:55.745Z,17.45
2023-05-07T21:08:23.201Z,17.50
2023-05-07T21:10:52.378Z,17.59
2023-05-07T21:13:19.789Z,17.53
2023-05-07T21:15:47.223Z,17.21
2023-05-07T21:18:14.953Z,16.68
2023-05-07T21:20:42.387Z,16.97
2023-05-07T21:23:09.720Z,15.66
2023-05-07T21:25:38.765Z,16.16
2023-05-07T21:28:07.728Z,16.91
2023-05-07T21:30:35.512Z,17.07
2023-05-07T21:33:03.410Z,16.21
2023-05-07T21:35:31.474Z,16.62
2023-05-07T21:37:58.968Z,16.96
2023-05-07T21:40:26.587Z,16.95
2023-05-07T21:42:54.008Z,16.99
2023-05-07T21:45:21.365Z,16.69
2023-05-07T21:47:49.055Z,17.02
2023-05-07T21:50:16.849Z,16.64
2023-05-07T21:52:44.425Z,16.48
2023-05-07T21:55:12.234Z,15.80
2023-05-07T21:57:41.892Z,15.92
2023-05-07T22:00:11.792Z,16.06
2023-05-07T22:02:39.749Z,16.53
2023-05-07T22:05:07.453Z,16.57
2023-05-07T22:07:34.680Z,16.29
2023-05-07T22:10:02.335Z,16.57
2023-05-07T22:12:29.709Z,16.48
2023-05-07T22:14:57.101Z,16.52
2023-05-07T22:17:24.860Z,16.45
2023-05-07T22:19:52.970Z,16.34
2023-05-07T22:22:20.537Z,16.48
2023-05-07T22:24:48.130Z,16.06
2023-05-07T22:27:15.441Z,15.81
2023-05-07T22:29:42.841Z,16.36
2023-05-07T22:32:12.498Z,16.21
2023-05-07T22:34:40.131Z,16.27
2023-05-07T22:37:07.504Z,16.32
2023-05-07T22:39:35.590Z,15.70
2023-05-07T22:42:03.019Z,15.86
2023-05-07T22:44:30.389Z,16.07
2023-05-07T22:46:58.032Z,15.63
2023-05-07T22:49:25.365Z,16.05
2023-05-07T22:51:52.740Z,15.96
2023-05-07T22:54:20.457Z,15.91
2023-05-07T22:56:47.813Z,15.64
2023-05-07T22:59:15.280Z,15.47
2023-05-07T23:01:43.514Z,15.80
2023-05-07T23:04:10.901Z,15.76
2023-05-07T23:06:38.260Z,15.38
2023-05-07T23:09:06.366Z,14.63
2023-05-07T23:11:33.900Z,14.41
2023-05-07T23:14:01.284Z,15.04
2023-05-07T23:16:29.191Z,15.12
2023-05-07T23:18:56.799Z,15.02
2023-05-07T23:21:24.208Z,15.18
2023-05-07T23:23:51.913Z,15.10
2023-05-07T23:26:19.264Z,15.07
2023-05-07T23:28:46.590Z,15.30
2023-05-07T23:31:14.263Z,14.62
2023-05-07T23:33:41.699Z,14.55
2023-05-07T23:36:09.461Z,14.39
2023-05-07T23:38:37.100Z,14.52
2023-05-07T23:41:04.453Z,14.95
2023-05-07T23:43:32.041Z,14.88
2023-05-07T23:45:59.743Z,14.46
2023-05-07T23:48:27.147Z,14.53
2023-05-07T23:50:55.248Z,14.59
2023-05-07T23:53:22.858Z,14.55
2023-05-07T23:55:50.227Z,14.49
2023-05-07T23:58:17.601Z,14.56
